sensor_id;sensor_type;location;lat;lon;timestamp;P1;durP1;ratioP1;P2;durP2;ratioP2
14306;SDS011;7237;49.500;11.400;2024-01-27T00:01:54;7.53;;;2.37;;
14306;SDS011;7237;49.500;11.400;2024-01-27T00:04:21;5.33;;;1.80;;
14306;SDS011;7237;49.500;11.400;2024-01-27T00:06:48;5.60;;;1.73;;
14306;SDS011;7237;49.500;11.400;2024-01-27T00:09:15;3.57;;;1.40;;
14306;SDS011;7237;49.500;11.400;2024-01-27T00:11:43;2.17;;;1.43;;
14306;SDS011;7237;49.500;11.400;2024-01-27T00:14:11;3.83;;;1.73;;
14306;SDS011;7237;49.500;11.400;2024-01-27T00:16:38;5.93;;;1.40;;
14306;SDS011;7237;49.500;11.400;2024-01-27T00:19:05;3.53;;;1.50;;
14306;SDS011;7237;49.500;11.400;2024-01-27T00:21:32;4.73;;;1.70;;
14306;SDS011;7237;49.500;11.400;2024-01-27T00:23:59;4.37;;;1.57;;
14306;SDS011;7237;49.500;11.400;2024-01-27T00:26:28;4.60;;;1.40;;
14306;SDS011;7237;49.500;11.400;2024-01-27T00:28:55;5.80;;;1.70;;
14306;SDS011;7237;49.500;11.400;2024-01-27T00:31:24;2.97;;;1.20;;
14306;SDS011;7237;49.500;11.400;2024-01-27T00:33:51;3.43;;;1.67;;
14306;SDS011;7237;49.500;11.400;2024-01-27T00:36:18;3.67;;;1.80;;
14306;SDS011;7237;49.500;11.400;2024-01-27T00:38:45;4.30;;;1.67;;
14306;SDS011;7237;49.500;11.400;2024-01-27T00:41:15;5.60;;;1.77;;
14306;SDS011;7237;49.500;11.400;2024-01-27T00:43:42;2.47;;;1.43;;
14306;SDS011;7237;49.500;11.400;2024-01-27T00:46:09;3.93;;;1.87;;
14306;SDS011;7237;49.500;11.400;2024-01-27T00:48:38;4.43;;;1.43;;
14306;SDS011;7237;49.500;11.400;2024-01-27T00:51:05;3.43;;;1.47;;
14306;SDS011;7237;49.500;11.400;2024-01-27T00:53:32;3.63;;;1.63;;
14306;SDS011;7237;49.500;11.400;2024-01-27T00:55:59;4.70;;;1.60;;
14306;SDS011;7237;49.500;11.400;2024-01-27T00:58:26;3.20;;;1.50;;
14306;SDS011;7237;49.500;11.400;2024-01-27T01:00:53;4.63;;;1.70;;
14306;SDS011;7237;49.500;11.400;2024-01-27T01:03:20;5.93;;;1.80;;
14306;SDS011;7237;49.500;11.400;2024-01-27T01:05:49;3.97;;;1.40;;
14306;SDS011;7237;49.500;11.400;2024-01-27T01:08:16;6.67;;;1.50;;
14306;SDS011;7237;49.500;11.400;2024-01-27T01:10:43;3.47;;;1.47;;
14306;SDS011;7237;49.500;11.400;2024-01-27T01:13:10;5.80;;;1.40;;
14306;SDS011;7237;49.500;11.400;2024-01-27T01:15:37;4.57;;;1.60;;
14306;SDS011;7237;49.500;11.400;2024-01-27T01:18:05;2.13;;;1.70;;
14306;SDS011;7237;49.500;11.400;2024-01-27T01:20:32;2.90;;;1.70;;
14306;SDS011;7237;49.500;11.400;2024-01-27T01:23:00;4.20;;;1.80;;
14306;SDS011;7237;49.500;11.400;2024-01-27T01:25:27;3.50;;;2.00;;
14306;SDS011;7237;49.500;11.400;2024-01-27T01:27:55;5.13;;;1.83;;
14306;SDS011;7237;49.500;11.400;2024-01-27T01:30:23;5.70;;;2.00;;
14306;SDS011;7237;49.500;11.400;2024-01-27T01:32:50;4.00;;;1.70;;
14306;SDS011;7237;49.500;11.400;2024-01-27T01:35:17;4.57;;;2.20;;
14306;SDS011;7237;49.500;11.400;2024-01-27T01:37:44;4.70;;;2.10;;
14306;SDS011;7237;49.500;11.400;2024-01-27T01:40:14;8.00;;;1.80;;
14306;SDS011;7237;49.500;11.400;2024-01-27T01:42:41;3.90;;;1.90;;
14306;SDS011;7237;49.500;11.400;2024-01-27T01:45:09;3.37;;;2.00;;
14306;SDS011;7237;49.500;11.400;2024-01-27T01:47:38;4.17;;;2.03;;
14306;SDS011;7237;49.500;11.400;2024-01-27T01:50:06;3.27;;;1.50;;
14306;SDS011;7237;49.500;11.400;2024-01-27T01:52:33;8.47;;;1.83;;
14306;SDS011;7237;49.500;11.400;2024-01-27T01:55:00;7.03;;;1.53;;
14306;SDS011;7237;49.500;11.400;2024-01-27T01:57:29;6.37;;;2.23;;
14306;SDS011;7237;49.500;11.400;2024-01-27T01:59:56;7.50;;;2.70;;
14306;SDS011;7237;49.500;11.400;2024-01-27T02:02:23;7.17;;;1.47;;
14306;SDS011;7237;49.500;11.400;2024-01-27T02:04:50;4.37;;;1.80;;
14306;SDS011;7237;49.500;11.400;2024-01-27T02:07:17;4.40;;;2.40;;
14306;SDS011;7237;49.500;11.400;2024-01-27T02:09:44;10.63;;;2.03;;
14306;SDS011;7237;49.500;11.400;2024-01-27T02:12:11;7.50;;;2.13;;
14306;SDS011;7237;49.500;11.400;2024-01-27T02:14:40;6.33;;;2.00;;
14306;SDS011;7237;49.500;11.400;2024-01-27T02:17:07;8.37;;;2.60;;
14306;SDS011;7237;49.500;11.400;2024-01-27T02:19:34;12.87;;;4.07;;
14306;SDS011;7237;49.500;11.400;2024-01-27T02:22:01;12.80;;;4.33;;
14306;SDS011;7237;49.500;11.400;2024-01-27T02:24:30;14.77;;;6.23;;
14306;SDS011;7237;49.500;11.400;2024-01-27T02:26:57;12.97;;;5.70;;
14306;SDS011;7237;49.500;11.400;2024-01-27T02:29:24;12.10;;;6.40;;
14306;SDS011;7237;49.500;11.400;2024-01-27T02:31:52;9.63;;;3.03;;
14306;SDS011;7237;49.500;11.400;2024-01-27T02:34:19;6.77;;;2.00;;
14306;SDS011;7237;49.500;11.400;2024-01-27T02:36:46;7.77;;;2.17;;
14306;SDS011;7237;49.500;11.400;2024-01-27T02:39:13;3.60;;;1.90;;
14306;SDS011;7237;49.500;11.400;2024-01-27T02:41:42;1.60;;;1.10;;
14306;SDS011;7237;49.500;11.400;2024-01-27T02:44:09;5.30;;;1.90;;
14306;SDS011;7237;49.500;11.400;2024-01-27T02:46:36;4.83;;;1.60;;
14306;SDS011;7237;49.500;11.400;2024-01-27T02:49:03;4.17;;;1.63;;
14306;SDS011;7237;49.500;11.400;2024-01-27T02:51:30;5.13;;;1.53;;
14306;SDS011;7237;49.500;11.400;2024-01-27T02:53:57;2.53;;;1.40;;
14306;SDS011;7237;49.500;11.400;2024-01-27T02:56:24;7.27;;;1.70;;
14306;SDS011;7237;49.500;11.400;2024-01-27T02:58:53;6.53;;;1.73;;
14306;SDS011;7237;49.500;11.400;2024-01-27T03:01:20;5.37;;;1.77;;
14306;SDS011;7237;49.500;11.400;2024-01-27T03:03:47;6.03;;;1.70;;
14306;SDS011;7237;49.500;11.400;2024-01-27T03:06:14;4.13;;;1.73;;
14306;SDS011;7237;49.500;11.400;2024-01-27T03:08:41;4.00;;;1.63;;
14306;SDS011;7237;49.500;11.400;2024-01-27T03:11:08;5.70;;;1.60;;
14306;SDS011;7237;49.500;11.400;2024-01-27T03:13:35;6.03;;;1.77;;
14306;SDS011;7237;49.500;11.400;2024-01-27T03:16:11;7.10;;;1.63;;
14306;SDS011;7237;49.500;11.400;2024-01-27T03:18:38;6.53;;;2.10;;
14306;SDS011;7237;49.500;11.400;2024-01-27T03:21:05;7.10;;;1.70;;
14306;SDS011;7237;49.500;11.400;2024-01-27T03:23:33;5.17;;;2.10;;
14306;SDS011;7237;49.500;11.400;2024-01-27T03:26:01;3.93;;;1.80;;
14306;SDS011;7237;49.500;11.400;2024-01-27T03:28:29;5.30;;;2.03;;
14306;SDS011;7237;49.500;11.400;2024-01-27T03:30:56;4.20;;;1.77;;
14306;SDS011;7237;49.500;11.400;2024-01-27T03:33:25;5.20;;;1.90;;
14306;SDS011;7237;49.500;11.400;2024-01-27T03:35:54;2.67;;;1.50;;
14306;SDS011;7237;49.500;11.400;2024-01-27T03:38:21;6.33;;;2.10;;
14306;SDS011;7237;49.500;11.400;2024-01-27T03:40:48;5.13;;;1.80;;
14306;SDS011;7237;49.500;11.400;2024-01-27T03:43:16;8.20;;;1.67;;
14306;SDS011;7237;49.500;11.400;2024-01-27T03:45:43;3.97;;;1.90;;
14306;SDS011;7237;49.500;11.400;2024-01-27T03:48:10;6.20;;;1.97;;
14306;SDS011;7237;49.500;11.400;2024-01-27T03:50:38;5.57;;;2.20;;
14306;SDS011;7237;49.500;11.400;2024-01-27T03:53:05;7.50;;;2.27;;
14306;SDS011;7237;49.500;11.400;2024-01-27T03:55:32;8.37;;;2.40;;
14306;SDS011;7237;49.500;11.400;2024-01-27T03:57:59;7.20;;;2.47;;
14306;SDS011;7237;49.500;11.400;2024-01-27T04:00:26;6.50;;;2.70;;
14306;SDS011;7237;49.500;11.400;2024-01-27T04:02:57;4.53;;;2.03;;
14306;SDS011;7237;49.500;11.400;2024-01-27T04:05:24;5.50;;;2.43;;
14306;SDS011;7237;49.500;11.400;2024-01-27T04:07:53;7.03;;;2.00;;
14306;SDS011;7237;49.500;11.400;2024-01-27T04:10:20;10.13;;;2.50;;
14306;SDS011;7237;49.500;11.400;2024-01-27T04:12:47;8.90;;;2.40;;
14306;SDS011;7237;49.500;11.400;2024-01-27T04:15:14;3.60;;;1.90;;
14306;SDS011;7237;49.500;11.400;2024-01-27T04:17:41;7.10;;;2.20;;
14306;SDS011;7237;49.500;11.400;2024-01-27T04:20:09;11.83;;;2.50;;
14306;SDS011;7237;49.500;11.400;2024-01-27T04:22:36;4.23;;;2.07;;
14306;SDS011;7237;49.500;11.400;2024-01-27T04:25:06;7.17;;;2.23;;
14306;SDS011;7237;49.500;11.400;2024-01-27T04:27:36;4.07;;;1.97;;
14306;SDS011;7237;49.500;11.400;2024-01-27T04:30:04;4.20;;;2.57;;
14306;SDS011;7237;49.500;11.400;2024-01-27T04:32:32;9.27;;;2.80;;
14306;SDS011;7237;49.500;11.400;2024-01-27T04:34:59;6.37;;;2.20;;
14306;SDS011;7237;49.500;11.400;2024-01-27T04:37:26;4.87;;;2.40;;
14306;SDS011;7237;49.500;11.400;2024-01-27T04:39:53;4.73;;;2.70;;
14306;SDS011;7237;49.500;11.400;2024-01-27T04:42:21;6.00;;;2.10;;
14306;SDS011;7237;49.500;11.400;2024-01-27T04:44:48;8.77;;;2.97;;
14306;SDS011;7237;49.500;11.400;2024-01-27T04:47:15;7.90;;;2.23;;
14306;SDS011;7237;49.500;11.400;2024-01-27T04:49:43;7.23;;;2.17;;
14306;SDS011;7237;49.500;11.400;2024-01-27T04:52:10;6.60;;;2.27;;
14306;SDS011;7237;49.500;11.400;2024-01-27T04:54:37;8.17;;;2.20;;
14306;SDS011;7237;49.500;11.400;2024-01-27T04:57:04;7.93;;;2.40;;
14306;SDS011;7237;49.500;11.400;2024-01-27T04:59:32;4.53;;;1.77;;
14306;SDS011;7237;49.500;11.400;2024-01-27T05:01:59;8.47;;;2.10;;
14306;SDS011;7237;49.500;11.400;2024-01-27T05:04:26;9.03;;;2.27;;
14306;SDS011;7237;49.500;11.400;2024-01-27T05:06:53;8.63;;;2.30;;
14306;SDS011;7237;49.500;11.400;2024-01-27T05:09:21;7.97;;;2.40;;
14306;SDS011;7237;49.500;11.400;2024-01-27T05:11:48;5.93;;;2.73;;
14306;SDS011;7237;49.500;11.400;2024-01-27T05:14:16;5.90;;;2.43;;
14306;SDS011;7237;49.500;11.400;2024-01-27T05:16:45;3.00;;;2.30;;
14306;SDS011;7237;49.500;11.400;2024-01-27T05:19:12;10.83;;;3.00;;
14306;SDS011;7237;49.500;11.400;2024-01-27T05:21:40;8.30;;;2.80;;
14306;SDS011;7237;49.500;11.400;2024-01-27T05:24:07;5.73;;;2.43;;
14306;SDS011;7237;49.500;11.400;2024-01-27T05:26:34;8.27;;;2.70;;
14306;SDS011;7237;49.500;11.400;2024-01-27T05:29:01;7.67;;;2.47;;
14306;SDS011;7237;49.500;11.400;2024-01-27T05:31:28;4.97;;;2.20;;
14306;SDS011;7237;49.500;11.400;2024-01-27T05:33:56;8.47;;;2.80;;
14306;SDS011;7237;49.500;11.400;2024-01-27T05:36:24;5.40;;;2.67;;
14306;SDS011;7237;49.500;11.400;2024-01-27T05:38:51;7.87;;;2.67;;
14306;SDS011;7237;49.500;11.400;2024-01-27T05:41:18;4.93;;;2.57;;
14306;SDS011;7237;49.500;11.400;2024-01-27T05:43:45;4.63;;;2.50;;
14306;SDS011;7237;49.500;11.400;2024-01-27T05:46:13;4.13;;;2.50;;
14306;SDS011;7237;49.500;11.400;2024-01-27T05:48:40;9.80;;;2.50;;
14306;SDS011;7237;49.500;11.400;2024-01-27T05:51:08;6.73;;;2.40;;
14306;SDS011;7237;49.500;11.400;2024-01-27T05:53:35;3.77;;;2.40;;
14306;SDS011;7237;49.500;11.400;2024-01-27T05:56:03;4.83;;;2.30;;
14306;SDS011;7237;49.500;11.400;2024-01-27T05:58:30;3.23;;;1.90;;
14306;SDS011;7237;49.500;11.400;2024-01-27T06:00:57;6.20;;;2.27;;
14306;SDS011;7237;49.500;11.400;2024-01-27T06:03:24;6.40;;;2.30;;
14306;SDS011;7237;49.500;11.400;2024-01-27T06:05:51;6.47;;;2.27;;
14306;SDS011;7237;49.500;11.400;2024-01-27T06:08:20;6.23;;;2.23;;
14306;SDS011;7237;49.500;11.400;2024-01-27T06:10:47;7.10;;;1.90;;
14306;SDS011;7237;49.500;11.400;2024-01-27T06:13:14;8.60;;;2.50;;
14306;SDS011;7237;49.500;11.400;2024-01-27T06:15:41;7.57;;;2.20;;
14306;SDS011;7237;49.500;11.400;2024-01-27T06:18:08;5.57;;;2.30;;
14306;SDS011;7237;49.500;11.400;2024-01-27T06:20:35;5.10;;;2.33;;
14306;SDS011;7237;49.500;11.400;2024-01-27T06:23:02;5.37;;;2.30;;
14306;SDS011;7237;49.500;11.400;2024-01-27T06:25:31;4.40;;;2.20;;
14306;SDS011;7237;49.500;11.400;2024-01-27T06:27:58;9.53;;;2.47;;
14306;SDS011;7237;49.500;11.400;2024-01-27T06:30:25;4.13;;;2.20;;
14306;SDS011;7237;49.500;11.400;2024-01-27T06:32:52;3.00;;;1.80;;
14306;SDS011;7237;49.500;11.400;2024-01-27T06:35:19;7.33;;;2.27;;
14306;SDS011;7237;49.500;11.400;2024-01-27T06:37:46;4.07;;;2.17;;
14306;SDS011;7237;49.500;11.400;2024-01-27T06:40:13;6.70;;;2.13;;
14306;SDS011;7237;49.500;11.400;2024-01-27T06:42:41;4.10;;;2.00;;
14306;SDS011;7237;49.500;11.400;2024-01-27T06:45:09;4.70;;;2.40;;
14306;SDS011;7237;49.500;11.400;2024-01-27T06:47:36;7.37;;;2.60;;
14306;SDS011;7237;49.500;11.400;2024-01-27T06:50:03;5.87;;;2.10;;
14306;SDS011;7237;49.500;11.400;2024-01-27T06:52:30;6.53;;;2.27;;
14306;SDS011;7237;49.500;11.400;2024-01-27T06:54:57;3.07;;;2.30;;
14306;SDS011;7237;49.500;11.400;2024-01-27T06:57:24;8.90;;;2.60;;
14306;SDS011;7237;49.500;11.400;2024-01-27T06:59:53;6.17;;;2.30;;
14306;SDS011;7237;49.500;11.400;2024-01-27T07:02:22;6.43;;;2.90;;
14306;SDS011;7237;49.500;11.400;2024-01-27T07:04:49;4.40;;;2.40;;
14306;SDS011;7237;49.500;11.400;2024-01-27T07:07:17;5.50;;;2.17;;
14306;SDS011;7237;49.500;11.400;2024-01-27T07:09:44;5.40;;;2.27;;
14306;SDS011;7237;49.500;11.400;2024-01-27T07:12:11;3.30;;;2.47;;
14306;SDS011;7237;49.500;11.400;2024-01-27T07:14:38;8.93;;;2.30;;
14306;SDS011;7237;49.500;11.400;2024-01-27T07:17:07;3.07;;;2.20;;
14306;SDS011;7237;49.500;11.400;2024-01-27T07:19:34;5.30;;;2.83;;
14306;SDS011;7237;49.500;11.400;2024-01-27T07:22:01;5.30;;;2.60;;
14306;SDS011;7237;49.500;11.400;2024-01-27T07:24:29;7.37;;;3.00;;
14306;SDS011;7237;49.500;11.400;2024-01-27T07:26:56;4.23;;;2.33;;
14306;SDS011;7237;49.500;11.400;2024-01-27T07:29:24;9.53;;;2.40;;
14306;SDS011;7237;49.500;11.400;2024-01-27T07:31:51;6.13;;;2.40;;
14306;SDS011;7237;49.500;11.400;2024-01-27T07:34:19;5.87;;;2.70;;
14306;SDS011;7237;49.500;11.400;2024-01-27T07:36:46;6.33;;;2.50;;
14306;SDS011;7237;49.500;11.400;2024-01-27T07:39:14;4.03;;;2.40;;
14306;SDS011;7237;49.500;11.400;2024-01-27T07:41:41;6.60;;;2.73;;
14306;SDS011;7237;49.500;11.400;2024-01-27T07:44:08;5.90;;;2.77;;
14306;SDS011;7237;49.500;11.400;2024-01-27T07:46:36;8.20;;;3.87;;
14306;SDS011;7237;49.500;11.400;2024-01-27T07:49:03;15.83;;;4.37;;
14306;SDS011;7237;49.500;11.400;2024-01-27T07:51:31;8.97;;;4.33;;
14306;SDS011;7237;49.500;11.400;2024-01-27T07:53:58;7.57;;;3.73;;
14306;SDS011;7237;49.500;11.400;2024-01-27T07:56:25;8.67;;;4.23;;
14306;SDS011;7237;49.500;11.400;2024-01-27T07:58:52;10.90;;;6.00;;
14306;SDS011;7237;49.500;11.400;2024-01-27T08:01:20;8.03;;;4.77;;
14306;SDS011;7237;49.500;11.400;2024-01-27T08:03:47;8.67;;;4.43;;
14306;SDS011;7237;49.500;11.400;2024-01-27T08:06:15;8.97;;;3.10;;
14306;SDS011;7237;49.500;11.400;2024-01-27T08:08:45;4.63;;;2.73;;
14306;SDS011;7237;49.500;11.400;2024-01-27T08:11:12;9.10;;;4.03;;
14306;SDS011;7237;49.500;11.400;2024-01-27T08:13:39;9.10;;;4.53;;
14306;SDS011;7237;49.500;11.400;2024-01-27T08:16:06;9.83;;;5.00;;
14306;SDS011;7237;49.500;11.400;2024-01-27T08:18:35;10.60;;;5.63;;
14306;SDS011;7237;49.500;11.400;2024-01-27T08:21:04;10.30;;;6.00;;
14306;SDS011;7237;49.500;11.400;2024-01-27T08:23:31;26.00;;;7.43;;
14306;SDS011;7237;49.500;11.400;2024-01-27T08:25:59;12.57;;;7.03;;
14306;SDS011;7237;49.500;11.400;2024-01-27T08:28:26;14.37;;;5.77;;
14306;SDS011;7237;49.500;11.400;2024-01-27T08:30:53;12.33;;;5.83;;
14306;SDS011;7237;49.500;11.400;2024-01-27T08:33:21;11.73;;;6.70;;
14306;SDS011;7237;49.500;11.400;2024-01-27T08:35:48;11.80;;;6.93;;
14306;SDS011;7237;49.500;11.400;2024-01-27T08:38:15;9.93;;;6.07;;
14306;SDS011;7237;49.500;11.400;2024-01-27T08:40:42;9.90;;;5.27;;
14306;SDS011;7237;49.500;11.400;2024-01-27T08:43:11;11.13;;;4.67;;
14306;SDS011;7237;49.500;11.400;2024-01-27T08:45:38;8.70;;;4.70;;
14306;SDS011;7237;49.500;11.400;2024-01-27T08:48:06;6.40;;;3.80;;
14306;SDS011;7237;49.500;11.400;2024-01-27T08:50:33;15.43;;;4.20;;
14306;SDS011;7237;49.500;11.400;2024-01-27T08:53:00;10.37;;;4.57;;
14306;SDS011;7237;49.500;11.400;2024-01-27T08:55:27;6.70;;;3.73;;
14306;SDS011;7237;49.500;11.400;2024-01-27T08:57:55;9.23;;;4.27;;
14306;SDS011;7237;49.500;11.400;2024-01-27T09:00:23;7.97;;;4.13;;
14306;SDS011;7237;49.500;11.400;2024-01-27T09:02:51;10.27;;;3.43;;
14306;SDS011;7237;49.500;11.400;2024-01-27T09:05:18;6.07;;;3.50;;
14306;SDS011;7237;49.500;11.400;2024-01-27T09:07:45;8.47;;;3.73;;
14306;SDS011;7237;49.500;11.400;2024-01-27T09:10:12;6.93;;;3.63;;
14306;SDS011;7237;49.500;11.400;2024-01-27T09:12:40;6.83;;;3.40;;
14306;SDS011;7237;49.500;11.400;2024-01-27T09:15:07;8.50;;;3.97;;
14306;SDS011;7237;49.500;11.400;2024-01-27T09:17:36;7.37;;;4.33;;
14306;SDS011;7237;49.500;11.400;2024-01-27T09:20:03;6.73;;;3.90;;
14306;SDS011;7237;49.500;11.400;2024-01-27T09:22:31;9.10;;;4.80;;
14306;SDS011;7237;49.500;11.400;2024-01-27T09:24:58;7.67;;;4.53;;
14306;SDS011;7237;49.500;11.400;2024-01-27T09:27:25;7.17;;;4.40;;
14306;SDS011;7237;49.500;11.400;2024-01-27T09:29:52;7.17;;;4.20;;
14306;SDS011;7237;49.500;11.400;2024-01-27T09:32:19;10.20;;;4.53;;
14306;SDS011;7237;49.500;11.400;2024-01-27T09:34:47;7.43;;;4.40;;
14306;SDS011;7237;49.500;11.400;2024-01-27T09:37:15;13.60;;;4.13;;
14306;SDS011;7237;49.500;11.400;2024-01-27T09:39:42;6.17;;;3.63;;
14306;SDS011;7237;49.500;11.400;2024-01-27T09:42:09;10.17;;;4.27;;
14306;SDS011;7237;49.500;11.400;2024-01-27T09:44:40;10.27;;;4.13;;
14306;SDS011;7237;49.500;11.400;2024-01-27T09:47:08;14.33;;;4.37;;
14306;SDS011;7237;49.500;11.400;2024-01-27T09:49:35;9.60;;;4.00;;
14306;SDS011;7237;49.500;11.400;2024-01-27T09:52:04;8.60;;;3.60;;
14306;SDS011;7237;49.500;11.400;2024-01-27T09:54:31;9.93;;;4.03;;
14306;SDS011;7237;49.500;11.400;2024-01-27T09:56:58;8.77;;;4.03;;
14306;SDS011;7237;49.500;11.400;2024-01-27T09:59:25;6.07;;;3.57;;
14306;SDS011;7237;49.500;11.400;2024-01-27T10:01:53;5.67;;;3.30;;
14306;SDS011;7237;49.500;11.400;2024-01-27T10:04:20;7.23;;;2.93;;
14306;SDS011;7237;49.500;11.400;2024-01-27T10:06:49;10.90;;;4.80;;
14306;SDS011;7237;49.500;11.400;2024-01-27T10:09:17;10.07;;;3.73;;
14306;SDS011;7237;49.500;11.400;2024-01-27T10:11:45;11.63;;;4.03;;
14306;SDS011;7237;49.500;11.400;2024-01-27T10:14:12;9.67;;;3.50;;
14306;SDS011;7237;49.500;11.400;2024-01-27T10:16:40;7.27;;;3.33;;
14306;SDS011;7237;49.500;11.400;2024-01-27T10:19:08;10.10;;;3.40;;
14306;SDS011;7237;49.500;11.400;2024-01-27T10:21:38;12.73;;;3.43;;
14306;SDS011;7237;49.500;11.400;2024-01-27T10:24:05;9.13;;;3.93;;
14306;SDS011;7237;49.500;11.400;2024-01-27T10:26:34;9.50;;;3.30;;
14306;SDS011;7237;49.500;11.400;2024-01-27T10:29:01;7.73;;;3.67;;
14306;SDS011;7237;49.500;11.400;2024-01-27T10:31:28;11.23;;;3.47;;
14306;SDS011;7237;49.500;11.400;2024-01-27T10:33:56;7.53;;;3.60;;
14306;SDS011;7237;49.500;11.400;2024-01-27T10:36:24;10.97;;;3.43;;
14306;SDS011;7237;49.500;11.400;2024-01-27T10:38:52;14.40;;;3.27;;
14306;SDS011;7237;49.500;11.400;2024-01-27T10:41:21;10.47;;;3.30;;
14306;SDS011;7237;49.500;11.400;2024-01-27T10:43:51;7.87;;;2.90;;
14306;SDS011;7237;49.500;11.400;2024-01-27T10:46:18;7.70;;;3.13;;
14306;SDS011;7237;49.500;11.400;2024-01-27T10:48:47;10.80;;;3.07;;
14306;SDS011;7237;49.500;11.400;2024-01-27T10:51:16;8.63;;;3.33;;
14306;SDS011;7237;49.500;11.400;2024-01-27T10:53:45;6.30;;;2.20;;
14306;SDS011;7237;49.500;11.400;2024-01-27T10:56:15;7.50;;;2.23;;
14306;SDS011;7237;49.500;11.400;2024-01-27T10:58:44;8.90;;;2.83;;
14306;SDS011;7237;49.500;11.400;2024-01-27T11:01:16;6.17;;;2.40;;
14306;SDS011;7237;49.500;11.400;2024-01-27T11:03:44;8.23;;;2.50;;
14306;SDS011;7237;49.500;11.400;2024-01-27T11:06:11;10.83;;;2.23;;
14306;SDS011;7237;49.500;11.400;2024-01-27T11:08:39;6.83;;;2.37;;
14306;SDS011;7237;49.500;11.400;2024-01-27T11:11:07;7.87;;;2.53;;
14306;SDS011;7237;49.500;11.400;2024-01-27T11:13:34;5.33;;;2.60;;
14306;SDS011;7237;49.500;11.400;2024-01-27T11:16:02;7.73;;;2.70;;
14306;SDS011;7237;49.500;11.400;2024-01-27T11:18:30;5.90;;;2.20;;
14306;SDS011;7237;49.500;11.400;2024-01-27T11:20:58;10.17;;;2.33;;
14306;SDS011;7237;49.500;11.400;2024-01-27T11:23:31;8.60;;;2.33;;
14306;SDS011;7237;49.500;11.400;2024-01-27T11:26:02;5.67;;;2.00;;
14306;SDS011;7237;49.500;11.400;2024-01-27T11:28:29;7.47;;;2.30;;
14306;SDS011;7237;49.500;11.400;2024-01-27T11:30:56;9.17;;;2.10;;
14306;SDS011;7237;49.500;11.400;2024-01-27T11:33:24;7.30;;;2.70;;
14306;SDS011;7237;49.500;11.400;2024-01-27T11:36:00;8.10;;;2.40;;
14306;SDS011;7237;49.500;11.400;2024-01-27T11:38:28;6.67;;;1.93;;
14306;SDS011;7237;49.500;11.400;2024-01-27T11:40:55;7.40;;;2.40;;
14306;SDS011;7237;49.500;11.400;2024-01-27T11:43:22;8.53;;;2.70;;
14306;SDS011;7237;49.500;11.400;2024-01-27T11:45:56;6.87;;;1.80;;
14306;SDS011;7237;49.500;11.400;2024-01-27T11:48:23;8.80;;;2.50;;
14306;SDS011;7237;49.500;11.400;2024-01-27T11:51:02;4.47;;;1.80;;
14306;SDS011;7237;49.500;11.400;2024-01-27T11:53:29;4.60;;;2.43;;
14306;SDS011;7237;49.500;11.400;2024-01-27T11:55:57;6.93;;;1.73;;
14306;SDS011;7237;49.500;11.400;2024-01-27T11:58:26;9.60;;;3.60;;
14306;SDS011;7237;49.500;11.400;2024-01-27T12:00:53;11.07;;;2.63;;
14306;SDS011;7237;49.500;11.400;2024-01-27T12:03:20;6.93;;;1.80;;
14306;SDS011;7237;49.500;11.400;2024-01-27T12:05:46;8.17;;;2.00;;
14306;SDS011;7237;49.500;11.400;2024-01-27T12:08:15;5.23;;;1.57;;
14306;SDS011;7237;49.500;11.400;2024-01-27T12:10:43;9.47;;;1.70;;
14306;SDS011;7237;49.500;11.400;2024-01-27T12:13:10;6.23;;;1.97;;
14306;SDS011;7237;49.500;11.400;2024-01-27T12:15:37;8.13;;;1.90;;
14306;SDS011;7237;49.500;11.400;2024-01-27T12:18:05;5.00;;;1.60;;
14306;SDS011;7237;49.500;11.400;2024-01-27T12:20:32;5.00;;;1.90;;
14306;SDS011;7237;49.500;11.400;2024-01-27T12:23:02;3.87;;;1.80;;
14306;SDS011;7237;49.500;11.400;2024-01-27T12:25:31;6.03;;;1.57;;
14306;SDS011;7237;49.500;11.400;2024-01-27T12:28:01;3.97;;;1.30;;
14306;SDS011;7237;49.500;11.400;2024-01-27T12:30:28;7.17;;;1.93;;
14306;SDS011;7237;49.500;11.400;2024-01-27T12:32:55;5.67;;;1.90;;
14306;SDS011;7237;49.500;11.400;2024-01-27T12:35:23;6.17;;;1.70;;
14306;SDS011;7237;49.500;11.400;2024-01-27T12:37:51;7.40;;;1.87;;
14306;SDS011;7237;49.500;11.400;2024-01-27T12:40:19;4.70;;;1.60;;
14306;SDS011;7237;49.500;11.400;2024-01-27T12:42:48;5.23;;;1.73;;
14306;SDS011;7237;49.500;11.400;2024-01-27T12:45:15;5.93;;;1.43;;
14306;SDS011;7237;49.500;11.400;2024-01-27T12:47:42;9.77;;;2.03;;
14306;SDS011;7237;49.500;11.400;2024-01-27T12:50:09;4.80;;;1.60;;
14306;SDS011;7237;49.500;11.400;2024-01-27T12:52:36;3.53;;;1.30;;
14306;SDS011;7237;49.500;11.400;2024-01-27T12:55:03;6.30;;;1.93;;
14306;SDS011;7237;49.500;11.400;2024-01-27T12:57:31;5.80;;;1.73;;
14306;SDS011;7237;49.500;11.400;2024-01-27T12:59:59;6.97;;;1.63;;
14306;SDS011;7237;49.500;11.400;2024-01-27T13:02:29;8.30;;;2.00;;
14306;SDS011;7237;49.500;11.400;2024-01-27T13:04:56;8.07;;;1.60;;
14306;SDS011;7237;49.500;11.400;2024-01-27T13:07:23;5.40;;;1.50;;
14306;SDS011;7237;49.500;11.400;2024-01-27T13:09:50;4.60;;;1.47;;
14306;SDS011;7237;49.500;11.400;2024-01-27T13:12:17;6.07;;;1.40;;
14306;SDS011;7237;49.500;11.400;2024-01-27T13:14:44;7.63;;;2.00;;
14306;SDS011;7237;49.500;11.400;2024-01-27T13:17:13;7.40;;;1.70;;
14306;SDS011;7237;49.500;11.400;2024-01-27T13:19:40;8.27;;;1.80;;
14306;SDS011;7237;49.500;11.400;2024-01-27T13:22:07;7.83;;;2.70;;
14306;SDS011;7237;49.500;11.400;2024-01-27T13:24:34;4.70;;;1.43;;
14306;SDS011;7237;49.500;11.400;2024-01-27T13:27:01;5.43;;;1.80;;
14306;SDS011;7237;49.500;11.400;2024-01-27T13:29:29;8.33;;;1.70;;
14306;SDS011;7237;49.500;11.400;2024-01-27T13:31:57;7.03;;;1.90;;
14306;SDS011;7237;49.500;11.400;2024-01-27T13:34:28;2.40;;;1.00;;
14306;SDS011;7237;49.500;11.400;2024-01-27T13:36:55;4.30;;;1.43;;
14306;SDS011;7237;49.500;11.400;2024-01-27T13:39:23;3.77;;;1.60;;
14306;SDS011;7237;49.500;11.400;2024-01-27T13:41:50;7.57;;;1.90;;
14306;SDS011;7237;49.500;11.400;2024-01-27T13:44:17;3.90;;;1.50;;
14306;SDS011;7237;49.500;11.400;2024-01-27T13:46:44;7.17;;;1.60;;
14306;SDS011;7237;49.500;11.400;2024-01-27T13:49:12;6.30;;;1.57;;
14306;SDS011;7237;49.500;11.400;2024-01-27T13:51:41;9.07;;;1.83;;
14306;SDS011;7237;49.500;11.400;2024-01-27T13:54:08;5.77;;;1.70;;
14306;SDS011;7237;49.500;11.400;2024-01-27T13:56:34;6.27;;;1.60;;
14306;SDS011;7237;49.500;11.400;2024-01-27T13:59:01;5.93;;;1.77;;
14306;SDS011;7237;49.500;11.400;2024-01-27T14:01:31;5.87;;;1.50;;
14306;SDS011;7237;49.500;11.400;2024-01-27T14:03:58;6.60;;;1.70;;
14306;SDS011;7237;49.500;11.400;2024-01-27T14:06:25;7.77;;;1.70;;
14306;SDS011;7237;49.500;11.400;2024-01-27T14:08:54;5.70;;;1.77;;
14306;SDS011;7237;49.500;11.400;2024-01-27T14:11:21;6.63;;;1.70;;
14306;SDS011;7237;49.500;11.400;2024-01-27T14:13:48;3.03;;;1.50;;
14306;SDS011;7237;49.500;11.400;2024-01-27T14:16:15;6.63;;;1.47;;
14306;SDS011;7237;49.500;11.400;2024-01-27T14:18:42;5.10;;;1.53;;
14306;SDS011;7237;49.500;11.400;2024-01-27T14:21:09;5.47;;;2.37;;
14306;SDS011;7237;49.500;11.400;2024-01-27T14:23:36;6.77;;;1.87;;
14306;SDS011;7237;49.500;11.400;2024-01-27T14:26:05;8.73;;;2.07;;
14306;SDS011;7237;49.500;11.400;2024-01-27T14:28:39;6.83;;;1.87;;
14306;SDS011;7237;49.500;11.400;2024-01-27T14:31:06;7.63;;;1.97;;
14306;SDS011;7237;49.500;11.400;2024-01-27T14:33:33;9.27;;;1.93;;
14306;SDS011;7237;49.500;11.400;2024-01-27T14:36:00;7.07;;;1.90;;
14306;SDS011;7237;49.500;11.400;2024-01-27T14:38:27;6.23;;;1.90;;
14306;SDS011;7237;49.500;11.400;2024-01-27T14:40:54;7.27;;;1.83;;
14306;SDS011;7237;49.500;11.400;2024-01-27T14:43:23;8.87;;;1.93;;
14306;SDS011;7237;49.500;11.400;2024-01-27T14:45:51;5.50;;;1.90;;
14306;SDS011;7237;49.500;11.400;2024-01-27T14:48:20;5.10;;;1.30;;